Terminal Aerodrome Forecast
Issued by NWS

Home | Current Version | Previous Version | Graphics & Text | Print | Product List | Glossary On
Versions: 1 2 3 4 5 6 7 8 9 10 11 12 13 14 15 16 17 18
025
FTUS43 KICT 160520
TAFRSL
TAF
KRSL 160520Z 1606/1706 15012KT P6SM BKN200
     FM160800 16011KT P6SM SCT015 BKN200
      TEMPO 1608/1612 BKN015
     FM161300 18009KT P6SM VCTS SCT015 BKN060CB
     FM161800 23010KT P6SM FEW060 SCT100
     FM162200 33012KT P6SM SCT110=

USA.gov is the U.S. government's official web portal to all federal, state and local government web resources and services.